createdAt,value
2023-03-25T00:00:00.076Z,1.00
2023-03-25T00:02:30.364Z,0.83
2023-03-25T00:04:57.396Z,0.83
2023-03-25T00:07:24.291Z,0.87
2023-03-25T00:09:51.364Z,0.80
2023-03-25T00:12:19.744Z,0.53
2023-03-25T00:14:55.446Z,0.73
2023-03-25T00:17:23.185Z,0.60
2023-03-25T00:19:50.645Z,0.80
2023-03-25T00:22:20.816Z,0.70
2023-03-25T00:24:48.205Z,0.70
2023-03-25T00:27:17.500Z,0.80
2023-03-25T00:29:45.648Z,0.60
2023-03-25T00:32:15.550Z,0.60
2023-03-25T00:34:47.423Z,0.63
2023-03-25T00:37:21.714Z,0.63
2023-03-25T00:39:48.909Z,0.70
2023-03-25T00:42:17.524Z,0.67
2023-03-25T00:44:44.418Z,0.80
2023-03-25T00:47:17.220Z,0.50
2023-03-25T00:49:44.399Z,0.67
2023-03-25T00:52:11.168Z,0.57
2023-03-25T00:54:38.116Z,0.57
2023-03-25T00:57:04.982Z,0.60
2023-03-25T00:59:31.837Z,0.50
2023-03-25T01:02:00.235Z,0.57
2023-03-25T01:04:27.456Z,0.50
2023-03-25T01:06:55.073Z,0.50
2023-03-25T01:09:21.836Z,0.70
2023-03-25T01:11:50.383Z,0.50
2023-03-25T01:14:19.976Z,0.50
2023-03-25T01:16:47.419Z,0.57
2023-03-25T01:19:15.393Z,0.47
2023-03-25T01:21:42.500Z,0.70
2023-03-25T01:24:13.048Z,0.40
2023-03-25T01:26:41.402Z,0.67
2023-03-25T01:29:08.247Z,0.30
2023-03-25T01:31:35.201Z,0.40
2023-03-25T01:34:02.428Z,0.70
2023-03-25T01:36:29.706Z,0.60
2023-03-25T01:38:59.051Z,0.50
2023-03-25T01:41:33.199Z,0.50
2023-03-25T01:44:31.068Z,0.63
2023-03-25T01:47:03.653Z,0.40
2023-03-25T01:49:31.313Z,0.57
2023-03-25T01:52:13.768Z,0.50
2023-03-25T01:54:41.735Z,0.57
2023-03-25T01:57:10.391Z,0.30
2023-03-25T01:59:38.676Z,0.53
2023-03-25T02:02:09.040Z,0.60
2023-03-25T02:04:45.352Z,0.33
2023-03-25T02:07:12.971Z,0.60
2023-03-25T02:09:39.925Z,0.40
2023-03-25T02:12:07.596Z,0.50
2023-03-25T02:14:37.101Z,0.60
2023-03-25T02:17:29.102Z,0.53
2023-03-25T02:20:16.197Z,0.70
2023-03-25T02:22:57.085Z,0.40
2023-03-25T02:25:36.389Z,0.43
2023-03-25T02:28:10.190Z,0.97
2023-03-25T02:30:53.576Z,0.60
2023-03-25T02:33:50.236Z,0.40
2023-03-25T02:37:04.132Z,0.60
2023-03-25T02:39:45.985Z,0.60
2023-03-25T02:42:20.470Z,0.70
2023-03-25T02:45:00.935Z,0.67
2023-03-25T02:47:34.518Z,0.50
2023-03-25T02:50:09.813Z,0.57
2023-03-25T02:52:44.685Z,0.57
2023-03-25T02:55:15.006Z,0.90
2023-03-25T02:57:45.959Z,0.53
2023-03-25T03:00:16.154Z,0.70
2023-03-25T03:02:46.704Z,0.90
2023-03-25T03:05:24.922Z,0.50
2023-03-25T03:08:03.910Z,0.60
2023-03-25T03:10:43.176Z,0.60
2023-03-25T03:13:25.529Z,0.60
2023-03-25T03:16:17.718Z,0.70
2023-03-25T03:19:21.264Z,0.43
2023-03-25T03:22:01.305Z,0.60
2023-03-25T03:24:38.166Z,0.73
2023-03-25T03:27:12.034Z,0.80
2023-03-25T03:29:46.624Z,0.50
2023-03-25T03:32:19.224Z,0.40
2023-03-25T03:34:51.315Z,0.40
2023-03-25T03:37:34.561Z,0.50
2023-03-25T03:40:05.555Z,0.30
2023-03-25T03:42:41.772Z,0.50
2023-03-25T03:45:21.024Z,0.43
2023-03-25T03:47:53.183Z,0.70
2023-03-25T03:50:25.483Z,0.43
2023-03-25T03:53:26.383Z,0.20
2023-03-25T03:56:01.770Z,0.30
2023-03-25T03:58:50.371Z,0.30
2023-03-25T04:01:28.164Z,0.20
2023-03-25T04:04:02.583Z,0.20
2023-03-25T04:07:14.723Z,0.20
2023-03-25T04:09:54.723Z,0.33
2023-03-25T04:12:28.851Z,0.20
2023-03-25T04:14:56.789Z,0.73
2023-03-25T04:17:24.218Z,0.40
2023-03-25T04:19:53.545Z,0.57
2023-03-25T04:22:21.847Z,0.50
2023-03-25T04:24:56.283Z,0.67
2023-03-25T04:27:23.215Z,1.63
2023-03-25T04:29:51.995Z,3.87
2023-03-25T04:32:19.127Z,6.00
2023-03-25T04:34:46.952Z,5.50
2023-03-25T04:37:14.261Z,0.67
2023-03-25T04:39:41.643Z,0.40
2023-03-25T04:42:13.699Z,0.30
2023-03-25T04:44:40.544Z,0.47
2023-03-25T04:47:14.655Z,1.07
2023-03-25T04:49:44.976Z,0.30
2023-03-25T04:52:12.025Z,0.57
2023-03-25T04:54:40.076Z,0.50
2023-03-25T04:57:08.818Z,0.60
2023-03-25T04:59:35.974Z,0.40
2023-03-25T05:02:05.808Z,0.40
2023-03-25T05:04:32.963Z,0.40
2023-03-25T05:06:59.764Z,0.37
2023-03-25T05:09:26.494Z,0.60
2023-03-25T05:11:53.681Z,0.60
2023-03-25T05:14:21.588Z,0.50
2023-03-25T05:16:48.751Z,0.50
2023-03-25T05:19:18.722Z,0.50
2023-03-25T05:21:45.919Z,0.33
2023-03-25T05:24:14.099Z,0.30
2023-03-25T05:26:42.056Z,0.30
2023-03-25T05:29:14.203Z,0.40
2023-03-25T05:31:46.054Z,0.30
2023-03-25T05:34:14.638Z,0.40
2023-03-25T05:36:41.917Z,0.30
2023-03-25T05:39:09.025Z,0.70
2023-03-25T05:41:41.613Z,0.73
2023-03-25T05:44:10.286Z,0.83
2023-03-25T05:46:37.097Z,0.50
2023-03-25T05:49:04.139Z,0.30
2023-03-25T05:51:34.221Z,0.30
2023-03-25T05:54:01.455Z,0.40
2023-03-25T05:56:28.505Z,0.60
2023-03-25T05:58:56.558Z,0.30
2023-03-25T06:01:32.813Z,0.60
2023-03-25T06:04:02.395Z,0.83
2023-03-25T06:06:32.092Z,0.50
2023-03-25T06:08:59.320Z,0.90
2023-03-25T06:11:26.197Z,0.60
2023-03-25T06:13:53.085Z,0.60
2023-03-25T06:16:27.406Z,1.00
2023-03-25T06:18:59.686Z,4.43
2023-03-25T06:21:29.042Z,3.97
2023-03-25T06:23:58.778Z,3.73
2023-03-25T06:26:26.405Z,2.53
2023-03-25T06:28:53.356Z,0.70
2023-03-25T06:31:22.873Z,0.90
2023-03-25T06:33:50.859Z,1.47
2023-03-25T06:36:20.229Z,0.90
2023-03-25T06:38:49.624Z,0.70
2023-03-25T06:41:20.466Z,0.60
2023-03-25T06:43:53.544Z,0.60
2023-03-25T06:46:40.712Z,0.80
2023-03-25T06:49:14.904Z,0.80
2023-03-25T06:51:41.667Z,0.83
2023-03-25T06:54:08.622Z,0.80
2023-03-25T06:56:35.449Z,0.60
2023-03-25T06:59:02.323Z,0.40
2023-03-25T07:01:29.209Z,1.00
2023-03-25T07:03:56.221Z,0.67
2023-03-25T07:06:23.984Z,0.60
2023-03-25T07:08:51.438Z,0.90
2023-03-25T07:11:24.485Z,0.67
2023-03-25T07:13:53.835Z,0.63
2023-03-25T07:16:21.846Z,0.67
2023-03-25T07:18:50.527Z,0.70
2023-03-25T07:21:18.236Z,0.73
2023-03-25T07:23:45.239Z,0.80
2023-03-25T07:26:13.426Z,1.37
2023-03-25T07:28:40.844Z,0.80
2023-03-25T07:31:13.059Z,0.80
2023-03-25T07:33:39.915Z,1.10
2023-03-25T07:36:08.146Z,0.50
2023-03-25T07:38:35.587Z,0.80
2023-03-25T07:41:11.289Z,0.87
2023-03-25T07:43:41.862Z,0.60
2023-03-25T07:46:22.001Z,1.00
2023-03-25T07:48:48.810Z,1.33
2023-03-25T07:51:15.721Z,0.93
2023-03-25T07:53:44.626Z,0.90
2023-03-25T07:56:12.151Z,0.70
2023-03-25T07:58:39.254Z,0.40
2023-03-25T08:01:06.644Z,0.70
2023-03-25T08:03:35.073Z,0.60
2023-03-25T08:06:02.610Z,0.80
2023-03-25T08:08:32.132Z,0.90
2023-03-25T08:10:59.697Z,0.80
2023-03-25T08:13:26.576Z,0.90
2023-03-25T08:15:53.752Z,0.70
2023-03-25T08:18:21.093Z,0.73
2023-03-25T08:20:50.284Z,1.03
2023-03-25T08:23:19.593Z,1.40
2023-03-25T08:25:50.324Z,4.43
2023-03-25T08:28:22.446Z,1.30
2023-03-25T08:30:55.699Z,3.30
2023-03-25T08:33:27.138Z,1.23
2023-03-25T08:35:56.623Z,0.60
2023-03-25T08:38:25.302Z,0.80
2023-03-25T08:40:52.591Z,0.70
2023-03-25T08:43:19.320Z,0.63
2023-03-25T08:45:46.356Z,0.70
2023-03-25T08:48:13.123Z,0.67
2023-03-25T08:50:39.910Z,0.60
2023-03-25T08:53:06.633Z,0.40
2023-03-25T08:55:33.662Z,1.00
2023-03-25T08:58:04.743Z,0.50
2023-03-25T09:00:32.310Z,0.60
2023-03-25T09:03:00.804Z,0.57
2023-03-25T09:05:27.789Z,0.50
2023-03-25T09:07:54.586Z,1.00
2023-03-25T09:10:21.611Z,0.90
2023-03-25T09:12:48.354Z,0.57
2023-03-25T09:15:15.294Z,0.77
2023-03-25T09:17:42.950Z,0.73
2023-03-25T09:20:10.654Z,0.70
2023-03-25T09:22:38.198Z,0.57
2023-03-25T09:25:06.807Z,1.10
2023-03-25T09:27:34.502Z,0.80
2023-03-25T09:30:01.583Z,0.43
2023-03-25T09:32:28.597Z,0.90
2023-03-25T09:34:57.030Z,0.80
2023-03-25T09:37:24.126Z,0.63
2023-03-25T09:39:51.161Z,1.30
2023-03-25T09:42:40.958Z,1.07
2023-03-25T09:45:12.229Z,0.50
2023-03-25T09:47:42.275Z,0.40
2023-03-25T09:50:14.697Z,0.40
2023-03-25T09:53:14.039Z,0.20
2023-03-25T09:55:44.131Z,0.30
2023-03-25T09:58:16.648Z,0.60
2023-03-25T10:00:45.345Z,0.30
2023-03-25T10:03:24.661Z,0.30
2023-03-25T10:05:51.833Z,0.30
2023-03-25T10:09:02.019Z,0.33
2023-03-25T10:11:31.432Z,0.20
2023-03-25T10:14:06.589Z,0.20
2023-03-25T10:17:11.092Z,0.10
2023-03-25T10:19:59.256Z,0.20
2023-03-25T10:22:41.035Z,0.30
2023-03-25T10:25:18.174Z,0.30
2023-03-25T10:27:49.548Z,0.30
2023-03-25T10:30:24.930Z,0.30
2023-03-25T10:33:01.677Z,0.40
2023-03-25T10:35:30.820Z,0.20
2023-03-25T10:38:21.336Z,0.37
2023-03-25T10:41:12.570Z,0.47
2023-03-25T10:43:41.833Z,0.30
2023-03-25T10:46:46.795Z,0.20
2023-03-25T10:49:20.659Z,0.40
2023-03-25T10:51:49.735Z,0.30
2023-03-25T10:54:17.389Z,0.50
2023-03-25T10:56:50.927Z,0.30
2023-03-25T10:59:24.376Z,0.43
2023-03-25T11:01:53.496Z,0.40
2023-03-25T11:04:22.137Z,0.40
2023-03-25T11:06:55.399Z,0.33
2023-03-25T11:09:30.740Z,0.30
2023-03-25T11:12:02.224Z,0.37
2023-03-25T11:14:29.856Z,0.50
2023-03-25T11:17:00.903Z,0.40
2023-03-25T11:19:37.074Z,0.80
2023-03-25T11:22:11.307Z,0.37
2023-03-25T11:24:44.119Z,0.37
2023-03-25T11:27:16.624Z,0.60
2023-03-25T11:29:54.199Z,0.50
2023-03-25T11:32:32.070Z,0.63
2023-03-25T11:35:03.672Z,0.33
2023-03-25T11:37:33.582Z,0.30
2023-03-25T11:40:13.185Z,0.20
2023-03-25T11:42:42.889Z,0.27
2023-03-25T11:45:21.445Z,0.20
2023-03-25T11:47:48.803Z,0.20
2023-03-25T11:50:25.130Z,0.30
2023-03-25T11:52:59.236Z,0.20
2023-03-25T11:55:29.581Z,0.30
2023-03-25T11:57:59.195Z,0.30
2023-03-25T12:00:29.355Z,0.30
2023-03-25T12:03:07.234Z,0.50
2023-03-25T12:05:34.533Z,0.70
2023-03-25T12:08:15.562Z,0.57
2023-03-25T12:10:57.853Z,0.80
2023-03-25T12:13:44.067Z,0.70
2023-03-25T12:16:37.792Z,0.50
2023-03-25T12:19:10.422Z,0.50
2023-03-25T12:22:04.558Z,1.90
2023-03-25T12:25:01.922Z,3.17
2023-03-25T12:27:31.492Z,0.60
2023-03-25T12:30:17.792Z,0.30
2023-03-25T12:33:22.452Z,0.40
2023-03-25T12:36:17.888Z,0.40
2023-03-25T12:39:39.502Z,0.40
2023-03-25T12:42:39.859Z,0.50
2023-03-25T12:45:34.495Z,0.40
2023-03-25T12:48:19.889Z,0.60
2023-03-25T12:51:03.772Z,0.97
2023-03-25T12:53:46.460Z,1.30
2023-03-25T12:56:37.282Z,1.30
2023-03-25T12:59:21.904Z,0.70
2023-03-25T13:02:27.113Z,0.63
2023-03-25T13:05:04.583Z,0.80
2023-03-25T13:07:44.893Z,0.30
2023-03-25T13:10:18.918Z,0.40
2023-03-25T13:12:56.358Z,1.00
2023-03-25T13:15:29.909Z,0.63
2023-03-25T13:18:06.000Z,0.50
2023-03-25T13:20:39.268Z,0.60
2023-03-25T13:23:11.680Z,0.40
2023-03-25T13:25:57.604Z,2.03
2023-03-25T13:28:30.941Z,0.87
2023-03-25T13:30:58.568Z,0.40
2023-03-25T13:33:30.385Z,0.40
2023-03-25T13:36:22.258Z,0.93
2023-03-25T13:38:53.974Z,0.53
2023-03-25T13:41:39.572Z,0.90
2023-03-25T13:44:27.480Z,0.70
2023-03-25T13:47:01.367Z,0.63
2023-03-25T13:49:35.780Z,0.40
2023-03-25T13:52:03.592Z,0.70
2023-03-25T13:54:38.840Z,0.37
2023-03-25T13:57:45.451Z,0.80
2023-03-25T14:00:21.750Z,0.30
2023-03-25T14:03:10.614Z,0.50
2023-03-25T14:05:56.263Z,0.57
2023-03-25T14:08:56.974Z,0.50
2023-03-25T14:11:37.467Z,0.60
2023-03-25T14:14:09.431Z,0.40
2023-03-25T14:16:39.028Z,0.60
2023-03-25T14:19:11.947Z,0.60
2023-03-25T14:21:39.460Z,0.53
2023-03-25T14:24:13.175Z,0.70
2023-03-25T14:26:53.311Z,0.80
2023-03-25T14:29:43.345Z,0.57
2023-03-25T14:32:16.039Z,0.63
2023-03-25T14:34:50.111Z,0.47
2023-03-25T14:37:25.963Z,0.50
2023-03-25T14:39:56.055Z,0.50
2023-03-25T14:42:29.048Z,0.50
2023-03-25T14:45:32.052Z,0.50
2023-03-25T14:47:59.314Z,0.60
2023-03-25T14:50:27.578Z,1.37
2023-03-25T14:53:05.173Z,0.80
2023-03-25T14:55:46.409Z,0.50
2023-03-25T14:58:18.277Z,0.57
2023-03-25T15:00:58.673Z,0.50
2023-03-25T15:03:35.042Z,0.57
2023-03-25T15:06:03.060Z,1.33
2023-03-25T15:08:34.574Z,0.60
2023-03-25T15:11:09.181Z,0.40
2023-03-25T15:13:52.718Z,0.33
2023-03-25T15:16:51.213Z,0.80
2023-03-25T15:19:19.635Z,0.57
2023-03-25T15:21:58.782Z,0.40
2023-03-25T15:24:39.191Z,0.70
2023-03-25T15:27:40.373Z,0.57
2023-03-25T15:30:17.511Z,0.47
2023-03-25T15:33:02.595Z,0.47
2023-03-25T15:35:50.379Z,0.60
2023-03-25T15:38:32.852Z,0.60
2023-03-25T15:41:02.688Z,0.50
2023-03-25T15:44:00.200Z,0.47
2023-03-25T15:46:55.406Z,0.77
2023-03-25T15:49:31.360Z,0.90
2023-03-25T15:52:22.449Z,0.80
2023-03-25T15:54:55.996Z,0.70
2023-03-25T15:57:34.523Z,0.67
2023-03-25T16:00:15.363Z,1.17
2023-03-25T16:02:55.461Z,0.90
2023-03-25T16:05:23.239Z,0.60
2023-03-25T16:07:50.323Z,0.70
2023-03-25T16:10:34.119Z,0.70
2023-03-25T16:13:04.318Z,0.90
2023-03-25T16:15:35.403Z,0.63
2023-03-25T16:18:06.428Z,0.60
2023-03-25T16:20:35.036Z,0.70
2023-03-25T16:23:03.808Z,0.80
2023-03-25T16:25:38.037Z,0.80
2023-03-25T16:28:07.941Z,0.70
2023-03-25T16:30:39.758Z,0.80
2023-03-25T16:33:12.494Z,0.67
2023-03-25T16:35:46.056Z,1.00
2023-03-25T16:38:17.362Z,1.10
2023-03-25T16:40:46.995Z,1.10
2023-03-25T16:43:18.916Z,1.50
2023-03-25T16:45:48.038Z,1.40
2023-03-25T16:48:27.022Z,1.37
2023-03-25T16:50:56.259Z,1.20
2023-03-25T16:53:25.723Z,1.03
2023-03-25T16:56:21.006Z,0.80
2023-03-25T16:59:03.809Z,0.60
2023-03-25T17:01:42.285Z,0.90
2023-03-25T17:04:22.302Z,0.70
2023-03-25T17:06:53.001Z,0.67
2023-03-25T17:09:22.587Z,0.60
2023-03-25T17:11:56.659Z,0.60
2023-03-25T17:14:30.709Z,0.70
2023-03-25T17:16:58.666Z,0.60
2023-03-25T17:19:27.298Z,1.23
2023-03-25T17:22:27.049Z,0.97
2023-03-25T17:24:56.785Z,1.00
2023-03-25T17:27:37.128Z,1.20
2023-03-25T17:30:42.656Z,1.83
2023-03-25T17:33:13.363Z,1.60
2023-03-25T17:35:41.784Z,1.50
2023-03-25T17:38:17.005Z,1.00
2023-03-25T17:40:43.795Z,3.03
2023-03-25T17:43:20.398Z,1.03
2023-03-25T17:45:47.428Z,3.20
2023-03-25T17:48:17.404Z,4.80
2023-03-25T17:50:54.848Z,2.70
2023-03-25T17:53:21.846Z,4.93
2023-03-25T17:55:51.124Z,5.97
2023-03-25T17:58:20.020Z,2.30
2023-03-25T18:00:47.627Z,4.20
2023-03-25T18:03:22.808Z,4.53
2023-03-25T18:05:55.975Z,3.90
2023-03-25T18:08:24.760Z,2.30
2023-03-25T18:10:53.278Z,1.80
2023-03-25T18:13:24.073Z,1.30
2023-03-25T18:15:52.838Z,0.80
2023-03-25T18:18:24.263Z,1.10
2023-03-25T18:20:52.439Z,0.80
2023-03-25T18:23:19.359Z,0.70
2023-03-25T18:25:46.421Z,1.10
2023-03-25T18:28:14.069Z,0.80
2023-03-25T18:30:43.958Z,1.00
2023-03-25T18:33:11.916Z,1.00
2023-03-25T18:35:38.738Z,1.90
2023-03-25T18:38:05.890Z,1.33
2023-03-25T18:40:35.925Z,1.43
2023-03-25T18:43:04.034Z,1.23
2023-03-25T18:45:31.174Z,1.00
2023-03-25T18:47:58.041Z,1.83
2023-03-25T18:50:39.057Z,1.20
2023-03-25T18:53:06.459Z,1.50
2023-03-25T18:55:35.261Z,4.47
2023-03-25T18:58:01.983Z,1.63
2023-03-25T19:00:38.149Z,3.33
2023-03-25T19:03:05.103Z,5.60
2023-03-25T19:05:32.432Z,1.10
2023-03-25T19:07:59.163Z,0.93
2023-03-25T19:10:29.730Z,1.20
2023-03-25T19:12:56.559Z,1.07
2023-03-25T19:15:27.645Z,0.83
2023-03-25T19:17:58.524Z,0.97
2023-03-25T19:20:29.540Z,0.90
2023-03-25T19:22:56.535Z,1.00
2023-03-25T19:25:23.344Z,0.70
2023-03-25T19:27:50.438Z,0.67
2023-03-25T19:30:20.199Z,1.03
2023-03-25T19:32:49.252Z,0.47
2023-03-25T19:35:18.140Z,0.93
2023-03-25T19:37:50.912Z,1.13
2023-03-25T19:40:20.860Z,1.00
2023-03-25T19:42:49.016Z,0.90
2023-03-25T19:45:16.823Z,1.00
2023-03-25T19:47:45.843Z,1.23
2023-03-25T19:50:18.971Z,0.83
2023-03-25T19:52:47.746Z,0.93
2023-03-25T19:55:15.454Z,1.23
2023-03-25T19:57:43.837Z,0.87
2023-03-25T20:00:13.696Z,2.23
2023-03-25T20:02:46.206Z,1.70
2023-03-25T20:05:15.228Z,0.97
2023-03-25T20:07:43.699Z,1.13
2023-03-25T20:10:19.502Z,1.00
2023-03-25T20:12:48.110Z,1.17
2023-03-25T20:15:16.634Z,0.90
2023-03-25T20:17:44.205Z,1.07
2023-03-25T20:20:13.022Z,1.60
2023-03-25T20:22:40.817Z,1.00
2023-03-25T20:25:09.766Z,1.20
2023-03-25T20:27:37.483Z,0.83
2023-03-25T20:30:06.041Z,1.00
2023-03-25T20:32:40.477Z,0.83
2023-03-25T20:35:10.190Z,0.97
2023-03-25T20:37:38.648Z,1.00
2023-03-25T20:40:11.074Z,0.80
2023-03-25T20:42:41.324Z,0.93
2023-03-25T20:45:09.681Z,0.60
2023-03-25T20:47:36.873Z,1.03
2023-03-25T20:50:05.039Z,0.80
2023-03-25T20:52:31.911Z,0.80
2023-03-25T20:54:59.194Z,0.80
2023-03-25T20:57:26.574Z,1.00
2023-03-25T20:59:53.408Z,1.40
2023-03-25T21:02:21.431Z,0.70
2023-03-25T21:04:48.420Z,0.97
2023-03-25T21:07:19.040Z,0.80
2023-03-25T21:09:47.695Z,1.20
2023-03-25T21:12:14.578Z,0.90
2023-03-25T21:14:41.948Z,0.70
2023-03-25T21:17:09.785Z,0.80
2023-03-25T21:19:36.963Z,0.70
2023-03-25T21:22:04.046Z,1.00
2023-03-25T21:24:33.854Z,1.27
2023-03-25T21:27:00.688Z,1.17
2023-03-25T21:29:27.782Z,1.00
2023-03-25T21:31:54.643Z,0.70
2023-03-25T21:34:22.164Z,0.70
2023-03-25T21:36:49.294Z,0.80
2023-03-25T21:39:16.115Z,1.33
2023-03-25T21:41:42.905Z,1.03
2023-03-25T21:44:10.146Z,0.63
2023-03-25T21:46:37.618Z,1.10
2023-03-25T21:49:04.522Z,0.70
2023-03-25T21:51:32.329Z,0.80
2023-03-25T21:54:00.329Z,0.70
2023-03-25T21:56:30.904Z,0.90
2023-03-25T21:58:58.265Z,1.07
2023-03-25T22:01:28.800Z,0.83
2023-03-25T22:03:57.612Z,0.83
2023-03-25T22:06:27.272Z,0.93
2023-03-25T22:08:56.886Z,0.87
2023-03-25T22:11:26.230Z,1.10
2023-03-25T22:13:53.085Z,1.17
2023-03-25T22:16:20.786Z,1.03
2023-03-25T22:18:48.241Z,0.90
2023-03-25T22:21:23.989Z,0.77
2023-03-25T22:23:54.737Z,1.00
2023-03-25T22:26:23.266Z,0.90
2023-03-25T22:28:58.662Z,1.00
2023-03-25T22:31:30.615Z,1.00
2023-03-25T22:34:10.718Z,0.60
2023-03-25T22:36:42.649Z,0.70
2023-03-25T22:39:10.438Z,1.00
2023-03-25T22:41:37.313Z,0.60
2023-03-25T22:44:04.277Z,1.00
2023-03-25T22:46:32.245Z,0.70
2023-03-25T22:48:59.319Z,0.70
2023-03-25T22:51:27.609Z,1.00
2023-03-25T22:53:54.373Z,0.80
2023-03-25T22:56:23.390Z,1.00
2023-03-25T22:58:53.590Z,0.80
2023-03-25T23:01:24.012Z,1.20
2023-03-25T23:03:52.431Z,1.60
2023-03-25T23:06:19.437Z,1.10
2023-03-25T23:08:47.924Z,0.93
2023-03-25T23:11:17.493Z,1.60
2023-03-25T23:13:47.642Z,1.60
2023-03-25T23:16:18.047Z,0.60
2023-03-25T23:18:44.941Z,0.90
2023-03-25T23:21:15.192Z,1.00
2023-03-25T23:23:52.762Z,0.83
2023-03-25T23:26:26.759Z,1.00
2023-03-25T23:28:57.077Z,0.87
2023-03-25T23:31:29.154Z,1.10
2023-03-25T23:33:58.363Z,1.20
2023-03-25T23:36:26.534Z,0.80
2023-03-25T23:38:53.717Z,1.00
2023-03-25T23:41:22.877Z,0.80
2023-03-25T23:43:53.810Z,0.90
2023-03-25T23:46:22.460Z,1.13
2023-03-25T23:48:49.836Z,1.10
2023-03-25T23:51:20.241Z,1.03
2023-03-25T23:53:48.755Z,1.10
2023-03-25T23:56:17.618Z,1.37
2023-03-25T23:58:44.585Z,1.00
